Time;durP1;ratioP1;P1;durP2;ratioP2;P2;SDS_P1;SDS_P2;PMS_P1;PMS_P2;Temp;Humidity;BMP_temperature;BMP_pressure;BME280_temperature;BME280_humidity;BME280_pressure;Samples;Min_cycle;Max_cycle;Signal;HPM_P1;HPM_P2
2022/01/25 00:31:03;;;;;;;10.57;7.35;;;8.00;72.50;;;;;;5031567;28;20041;-76
2022/01/25 00:33:32;;;;;;;8.65;5.80;;;7.90;73.00;;;;;;5030104;28;20037;-77
2022/01/25 00:35:59;;;;;;;7.78;6.15;;;7.80;73.10;;;;;;5013937;28;20034;-76
2022/01/25 00:38:25;;;;;;;9.00;6.53;;;7.80;73.40;;;;;;5032089;28;20041;-77
2022/01/25 00:40:51;;;;;;;9.90;6.35;;;7.80;73.20;;;;;;5035627;28;20116;-77
2022/01/25 00:43:17;;;;;;;9.20;6.03;;;7.70;73.30;;;;;;5017771;28;20052;-78
2022/01/25 00:45:43;;;;;;;7.32;5.78;;;7.70;73.40;;;;;;5035442;28;20029;-77
2022/01/25 00:48:18;;;;;;;7.15;5.57;;;7.80;73.60;;;;;;5016091;28;20120;-78
2022/01/25 00:50:43;;;;;;;7.80;5.35;;;7.80;73.30;;;;;;5031203;28;20091;-78
2022/01/25 00:55:53;;;;;;;6.43;5.45;;;7.80;73.50;;;;;;5033521;28;20128;-78
2022/01/25 00:58:19;;;;;;;8.70;6.57;;;7.80;73.50;;;;;;5034494;28;20124;-77
2022/01/25 01:00:45;;;;;;;8.35;6.15;;;7.70;73.60;;;;;;5035408;28;20382;-78
2022/01/25 01:03:11;;;;;;;9.05;6.18;;;7.60;74.00;;;;;;5035703;28;20034;-78
2022/01/25 01:05:38;;;;;;;5.53;4.90;;;7.60;74.00;;;;;;5031663;28;20137;-78
2022/01/25 01:08:04;;;;;;;5.78;5.00;;;7.70;73.60;;;;;;5017216;28;20124;-78
2022/01/25 01:10:30;;;;;;;7.53;5.15;;;7.70;73.70;;;;;;5033712;28;20040;-77
2022/01/25 01:15:52;;;;;;;7.45;4.95;;;7.80;73.80;;;;;;5034375;28;20402;-78
2022/01/25 01:34:50;;;;;;;7.63;5.13;;;7.90;73.20;;;;;;5034111;28;20038;-78
2022/01/25 01:42:51;;;;;;;8.35;7.00;;;7.90;73.50;;;;;;5033782;28;20508;-77
2022/01/25 01:45:37;;;;;;;12.32;8.25;;;7.90;73.40;;;;;;5032099;28;20037;-76
2022/01/25 01:48:06;;;;;;;10.30;8.48;;;7.70;73.80;;;;;;5034414;28;20033;-77
2022/01/25 01:50:35;;;;;;;12.90;7.27;;;7.50;74.10;;;;;;5033515;28;20069;-77
2022/01/25 01:53:04;;;;;;;7.80;6.20;;;7.40;74.80;;;;;;5034216;28;20041;-77
2022/01/25 01:55:31;;;;;;;6.55;5.05;;;7.50;75.10;;;;;;5016185;28;20347;-78
2022/01/25 01:57:58;;;;;;;9.90;6.65;;;7.50;74.90;;;;;;5034051;28;20041;-78
2022/01/25 02:00:40;;;;;;;8.50;5.93;;;7.60;74.60;;;;;;5033764;28;20068;-78
2022/01/25 02:03:06;;;;;;;8.32;5.90;;;7.60;74.40;;;;;;5011905;28;20375;-78
2022/01/25 02:05:33;;;;;;;7.55;5.95;;;7.60;74.70;;;;;;5031353;28;20132;-77
2022/01/25 02:08:00;;;;;;;9.10;7.20;;;7.60;74.60;;;;;;5015937;28;20033;-77
2022/01/25 02:10:26;;;;;;;10.18;7.85;;;7.60;74.30;;;;;;5033466;28;21688;-77
2022/01/25 02:12:52;;;;;;;12.57;5.95;;;7.50;74.50;;;;;;5016274;28;20037;-78
2022/01/25 02:15:20;;;;;;;7.15;5.47;;;7.50;74.70;;;;;;5034094;28;20536;-78
2022/01/25 02:23:21;;;;;;;8.57;6.18;;;7.60;74.90;;;;;;5030403;28;20437;-78
2022/01/25 02:25:49;;;;;;;9.27;6.65;;;7.50;75.30;;;;;;5033426;28;20041;-78
2022/01/25 02:28:15;;;;;;;7.75;6.03;;;7.60;74.70;;;;;;5034031;28;20038;-79
2022/01/25 02:30:42;;;;;;;8.10;6.07;;;7.60;74.60;;;;;;5027741;28;20056;-78
2022/01/25 02:33:08;;;;;;;8.30;6.40;;;7.70;74.70;;;;;;5032514;28;20044;-79
2022/01/25 02:35:34;;;;;;;7.07;5.63;;;7.70;74.70;;;;;;5033971;28;20041;-78
2022/01/25 02:37:59;;;;;;;7.53;5.75;;;7.80;74.40;;;;;;5033725;28;20029;-77
2022/01/25 02:40:25;;;;;;;7.72;5.85;;;7.80;74.90;;;;;;5015820;28;20053;-78
2022/01/25 02:42:52;;;;;;;7.60;5.93;;;7.80;74.40;;;;;;5033341;28;20037;-77
2022/01/25 02:45:18;;;;;;;6.82;5.25;;;7.80;74.20;;;;;;5033119;28;20508;-78
2022/01/25 02:50:29;;;;;;;6.45;5.35;;;7.90;73.90;;;;;;5033447;28;20091;-77
2022/01/25 02:52:55;;;;;;;7.43;5.55;;;7.80;74.00;;;;;;5015391;28;20037;-77
2022/01/25 02:55:21;;;;;;;5.95;4.57;;;7.80;73.80;;;;;;5032073;28;20113;-79
2022/01/25 02:57:48;;;;;;;7.35;5.35;;;7.80;73.80;;;;;;5011355;28;20392;-77
2022/01/25 03:00:14;;;;;;;9.55;5.85;;;7.90;74.00;;;;;;5032983;28;20101;-76
2022/01/25 03:02:40;;;;;;;8.30;6.05;;;7.80;74.20;;;;;;5031899;28;20068;-75
2022/01/25 03:05:06;;;;;;;8.85;6.10;;;7.80;73.90;;;;;;5032827;28;20041;-76
2022/01/25 03:07:33;;;;;;;12.75;9.10;;;7.80;74.60;;;;;;5032284;28;20029;-77
2022/01/25 03:10:00;;;;;;;9.27;6.55;;;7.70;74.20;;;;;;5032748;28;20437;-77
2022/01/25 03:12:40;;;;;;;8.75;6.53;;;7.60;75.10;;;;;;5015306;28;20037;-77
2022/01/25 03:17:46;;;;;;;8.35;6.60;;;7.60;74.90;;;;;;5032250;28;20026;-76
2022/01/25 03:20:19;;;;;;;8.40;7.07;;;7.60;75.10;;;;;;5032341;28;20038;-76
2022/01/25 03:22:57;;;;;;;10.48;7.03;;;7.60;75.30;;;;;;5014723;28;20045;-77
2022/01/25 03:25:26;;;;;;;7.63;6.13;;;7.50;74.80;;;;;;5030507;28;20120;-76
2022/01/25 03:27:52;;;;;;;8.80;6.85;;;7.60;74.80;;;;;;5032689;28;20034;-77
2022/01/25 03:30:18;;;;;;;7.65;6.57;;;7.60;75.00;;;;;;5032809;28;20041;-77
2022/01/25 03:32:43;;;;;;;9.32;7.70;;;7.60;75.00;;;;;;5032279;28;20041;-77
2022/01/25 03:35:09;;;;;;;11.20;7.53;;;7.50;75.00;;;;;;5032388;28;20501;-77
2022/01/25 03:37:35;;;;;;;9.13;6.95;;;7.40;75.10;;;;;;5032691;28;20496;-77
2022/01/25 03:40:01;;;;;;;9.88;7.55;;;7.40;75.40;;;;;;5032682;28;20039;-77
2022/01/25 03:42:26;;;;;;;9.95;8.20;;;7.40;75.50;;;;;;5014647;28;20049;-77
2022/01/25 03:44:52;;;;;;;11.27;9.00;;;7.30;75.50;;;;;;5032376;28;20124;-77
2022/01/25 03:47:22;;;;;;;9.73;7.32;;;7.20;75.80;;;;;;5032582;28;20119;-77
2022/01/25 03:49:50;;;;;;;8.02;6.70;;;7.20;75.80;;;;;;5032437;28;20390;-77
2022/01/25 03:52:21;;;;;;;10.93;6.72;;;7.10;75.80;;;;;;5032114;28;20152;-77
2022/01/25 03:54:48;;;;;;;8.18;6.82;;;7.20;75.90;;;;;;5031426;28;20026;-77
2022/01/25 03:57:14;;;;;;;10.88;7.80;;;7.10;75.90;;;;;;5028484;28;20037;-77
2022/01/25 03:59:40;;;;;;;10.90;8.95;;;7.10;75.50;;;;;;5032342;28;20748;-77
2022/01/25 04:02:06;;;;;;;12.20;8.20;;;7.00;75.50;;;;;;5014280;28;20124;-77
2022/01/25 04:04:33;;;;;;;10.98;8.85;;;6.90;76.00;;;;;;5031879;28;20106;-77
2022/01/25 04:07:07;;;;;;;10.80;9.23;;;6.90;76.50;;;;;;5014224;28;20045;-77
2022/01/25 04:09:33;;;;;;;10.85;8.60;;;6.80;76.60;;;;;;5028145;28;20029;-77
2022/01/25 04:12:01;;;;;;;18.45;10.13;;;6.80;76.40;;;;;;5031354;28;20037;-78
2022/01/25 04:14:28;;;;;;;12.38;9.43;;;6.60;76.60;;;;;;5012852;28;20038;-77
2022/01/25 04:17:04;;;;;;;9.93;8.93;;;6.50;77.20;;;;;;5030601;28;20056;-78
2022/01/25 04:19:41;;;;;;;12.20;8.73;;;6.50;77.50;;;;;;5031537;28;20033;-78
2022/01/25 04:25:04;;;;;;;8.68;6.63;;;6.60;77.70;;;;;;5030558;28;20061;-78
2022/01/25 04:27:31;;;;;;;9.15;5.75;;;6.60;77.50;;;;;;5014720;28;20042;-78
2022/01/25 04:29:57;;;;;;;10.30;6.57;;;6.80;77.40;;;;;;5026521;28;20426;-79
2022/01/25 04:32:42;;;;;;;7.85;6.82;;;6.80;77.10;;;;;;5014042;28;20041;-78
2022/01/25 04:35:27;;;;;;;9.75;7.35;;;6.90;76.60;;;;;;5030496;28;20128;-78
2022/01/25 04:49:41;;;;;;;9.45;7.13;;;7.00;77.10;;;;;;5031825;28;20048;-76
2022/01/25 04:59:36;;;;;;;10.95;8.70;;;7.10;76.40;;;;;;5031918;28;20442;-77
2022/01/25 05:02:08;;;;;;;12.02;8.63;;;7.00;76.90;;;;;;5013905;28;20076;-78
2022/01/25 05:04:40;;;;;;;10.40;8.05;;;7.00;76.80;;;;;;5028904;28;20037;-79
2022/01/25 05:07:24;;;;;;;10.18;8.05;;;7.00;76.80;;;;;;5030317;28;20029;-78
2022/01/25 05:09:51;;;;;;;10.07;8.50;;;7.10;77.10;;;;;;5028314;28;20036;-78
2022/01/25 05:12:17;;;;;;;12.13;9.95;;;7.10;76.70;;;;;;5030839;28;20033;-79
2022/01/25 05:14:59;;;;;;;10.15;9.02;;;7.00;76.60;;;;;;5012664;28;20037;-80
2022/01/25 05:17:36;;;;;;;14.48;11.20;;;7.00;76.90;;;;;;5009498;28;20092;-79
2022/01/25 05:22:46;;;;;;;13.18;10.05;;;6.90;76.20;;;;;;5028517;28;20129;-82
2022/01/25 05:25:12;;;;;;;10.75;8.65;;;6.80;76.60;;;;;;5030245;28;20128;-83
2022/01/25 05:27:38;;;;;;;12.80;9.57;;;6.80;77.00;;;;;;5029664;28;20044;-83
2022/01/25 05:30:04;;;;;;;15.23;11.07;;;6.80;76.90;;;;;;5035236;28;20038;-83
2022/01/25 05:32:32;;;;;;;13.63;9.80;;;6.80;77.40;;;;;;5035025;28;20030;-83
2022/01/25 05:34:58;;;;;;;13.30;9.95;;;6.70;77.00;;;;;;5032517;28;20033;-83
2022/01/25 05:37:24;;;;;;;12.18;9.18;;;6.80;77.20;;;;;;5015975;28;20053;-83
2022/01/25 05:39:51;;;;;;;8.07;7.05;;;6.80;76.80;;;;;;5012910;28;20045;-83
2022/01/25 05:42:47;;;;;;;10.75;7.38;;;6.80;77.30;;;;;;5016275;28;20064;-82
2022/01/25 05:45:26;;;;;;;11.32;8.65;;;6.90;77.00;;;;;;5014163;28;20037;-81
2022/01/25 05:47:52;;;;;;;11.05;7.85;;;6.80;77.00;;;;;;5057871;23;20058;-79
2022/01/25 05:50:18;;;;;;;12.40;8.63;;;6.90;77.00;;;;;;5053483;28;20049;-79
2022/01/25 05:52:43;;;;;;;12.90;8.45;;;6.90;76.60;;;;;;5050892;28;20060;-79
2022/01/25 05:55:10;;;;;;;10.07;7.32;;;6.80;76.80;;;;;;5034603;28;20037;-78
2022/01/25 05:57:36;;;;;;;10.38;8.57;;;6.80;76.90;;;;;;5053545;28;20484;-79
2022/01/25 06:00:04;;;;;;;8.73;7.68;;;6.80;76.60;;;;;;5050001;28;20037;-79
2022/01/25 06:02:32;;;;;;;13.90;9.07;;;6.80;76.70;;;;;;5033350;28;20485;-78
2022/01/25 06:04:57;;;;;;;9.77;8.40;;;6.70;76.20;;;;;;5053015;28;20128;-78
2022/01/25 06:07:24;;;;;;;12.02;9.25;;;6.60;76.80;;;;;;5048347;28;20108;-78
2022/01/25 06:09:49;;;;;;;14.88;9.90;;;6.60;77.00;;;;;;5045699;28;20029;-80
2022/01/25 06:12:15;;;;;;;19.85;10.75;;;6.60;77.90;;;;;;5045199;28;20029;-80
2022/01/25 06:14:41;;;;;;;8.98;7.28;;;6.50;77.80;;;;;;5051688;28;20041;-79
2022/01/25 06:17:07;;;;;;;9.65;7.18;;;6.50;78.40;;;;;;5043952;28;20074;-80
2022/01/25 06:19:32;;;;;;;12.05;7.95;;;6.60;78.40;;;;;;5053765;28;20052;-78
2022/01/25 06:21:58;;;;;;;11.82;9.50;;;6.60;77.80;;;;;;5035753;28;20037;-87
2022/01/25 06:24:24;;;;;;;11.75;9.10;;;6.50;77.40;;;;;;5058432;28;20067;-84
2022/01/25 06:26:50;;;;;;;11.68;8.48;;;6.50;78.20;;;;;;5062296;28;20044;-85
2022/01/25 06:29:18;;;;;;;12.00;9.93;;;6.40;78.70;;;;;;5046626;28;20075;-86
2022/01/25 06:31:46;;;;;;;13.85;9.77;;;6.40;78.30;;;;;;5057924;28;20039;-88
2022/01/25 06:34:12;;;;;;;12.93;9.70;;;6.40;79.20;;;;;;5058592;28;20033;-86
2022/01/25 06:36:38;;;;;;;12.23;10.00;;;6.30;79.20;;;;;;5063830;28;20049;-86
2022/01/25 06:39:03;;;;;;;12.02;9.68;;;6.20;80.60;;;;;;5059076;28;20060;-86
2022/01/25 06:41:29;;;;;;;12.30;9.65;;;6.20;81.10;;;;;;5077018;28;20037;-85
2022/01/25 06:43:55;;;;;;;13.27;9.38;;;6.10;81.40;;;;;;5069558;28;20032;-87
2022/01/25 06:46:20;;;;;;;12.80;10.15;;;6.20;82.00;;;;;;5070685;28;20120;-87
2022/01/25 06:48:46;;;;;;;10.48;8.25;;;6.20;82.50;;;;;;5063671;28;20064;-85
2022/01/25 06:51:11;;;;;;;9.02;7.45;;;6.30;82.70;;;;;;5071717;28;20044;-87
2022/01/25 06:53:37;;;;;;;10.15;8.43;;;6.40;82.40;;;;;;5074140;28;20040;-86
2022/01/25 06:56:05;;;;;;;9.60;7.10;;;6.50;82.30;;;;;;5040407;28;20124;-86
2022/01/25 06:58:31;;;;;;;14.85;10.00;;;6.60;81.50;;;;;;5057709;28;20472;-87
2022/01/25 07:00:57;;;;;;;15.05;12.07;;;6.60;80.30;;;;;;5048308;28;20044;-86
2022/01/25 07:03:22;;;;;;;12.77;9.98;;;6.50;80.10;;;;;;5048700;28;20041;-88
2022/01/25 07:05:48;;;;;;;14.02;9.25;;;6.50;80.80;;;;;;5048874;28;20397;-88
2022/01/25 07:08:14;;;;;;;10.95;9.00;;;6.50;80.20;;;;;;5038573;28;20041;-88
2022/01/25 07:10:39;;;;;;;12.02;8.95;;;6.50;80.80;;;;;;5041316;28;20060;-87
2022/01/25 07:13:05;;;;;;;15.23;12.05;;;6.50;80.10;;;;;;5048954;28;20061;-85
2022/01/25 07:15:31;;;;;;;11.38;8.65;;;6.50;80.10;;;;;;5056569;28;20073;-85
2022/01/25 07:17:57;;;;;;;13.15;10.68;;;6.50;80.60;;;;;;5057788;28;20068;-84
2022/01/25 07:20:22;;;;;;;12.55;9.65;;;6.50;80.30;;;;;;5049914;28;20042;-85
2022/01/25 07:22:48;;;;;;;13.60;11.05;;;6.60;79.50;;;;;;5041075;28;20029;-86
2022/01/25 07:25:14;;;;;;;14.30;11.00;;;6.50;79.30;;;;;;5038709;28;20096;-86
2022/01/25 07:27:40;;;;;;;12.63;10.18;;;6.30;78.80;;;;;;5050768;28;20048;-85
2022/01/25 07:30:07;;;;;;;16.10;11.10;;;6.30;79.30;;;;;;5034333;28;20036;-86
2022/01/25 07:32:33;;;;;;;12.48;9.68;;;6.40;79.60;;;;;;5046209;28;20048;-87
2022/01/25 07:34:59;;;;;;;15.43;10.45;;;6.50;79.40;;;;;;5054311;28;20053;-86
2022/01/25 07:37:25;;;;;;;16.10;12.05;;;6.60;79.20;;;;;;5051771;28;20029;-86
2022/01/25 07:39:51;;;;;;;12.63;10.23;;;6.60;78.10;;;;;;5054392;28;20052;-86
2022/01/25 07:42:18;;;;;;;14.07;10.48;;;6.50;77.80;;;;;;5049393;28;20695;-86
2022/01/25 07:44:44;;;;;;;18.65;10.70;;;6.50;77.70;;;;;;5057143;28;20056;-86
2022/01/25 07:47:10;;;;;;;11.57;8.68;;;6.50;77.60;;;;;;5058660;28;20089;-86
2022/01/25 07:49:36;;;;;;;12.07;9.88;;;6.50;77.60;;;;;;5038770;28;20072;-86
2022/01/25 07:52:03;;;;;;;15.75;10.60;;;6.50;77.60;;;;;;5055080;28;20413;-85
2022/01/25 07:54:29;;;;;;;17.80;9.35;;;6.50;77.40;;;;;;5049825;28;20036;-90
2022/01/25 07:56:55;;;;;;;14.95;11.20;;;6.50;77.10;;;;;;5029376;28;20036;-89
2022/01/25 07:59:21;;;;;;;15.27;12.27;;;6.40;76.90;;;;;;5033667;28;20032;-86
2022/01/25 08:01:47;;;;;;;12.32;10.27;;;6.30;77.30;;;;;;5035301;28;20041;-86
2022/01/25 08:04:14;;;;;;;10.82;8.65;;;6.40;77.60;;;;;;5054558;28;20036;-89
2022/01/25 08:06:40;;;;;;;13.10;10.02;;;6.50;77.70;;;;;;5051786;28;20040;-82
2022/01/25 08:09:07;;;;;;;21.58;12.82;;;6.60;77.70;;;;;;5053514;28;20091;-81
2022/01/25 08:11:37;;;;;;;14.00;10.57;;;6.60;77.20;;;;;;5053051;28;20112;-83
2022/01/25 08:14:16;;;;;;;11.52;9.75;;;6.60;77.20;;;;;;5053357;28;20060;-81
2022/01/25 08:16:45;;;;;;;20.02;8.63;;;6.70;77.30;;;;;;5053263;28;20041;-82
2022/01/25 08:19:13;;;;;;;9.68;8.05;;;6.80;77.00;;;;;;5034346;28;20508;-81
2022/01/25 08:21:41;;;;;;;9.10;7.45;;;6.90;77.00;;;;;;5051384;28;20090;-82
2022/01/25 08:24:07;;;;;;;11.23;8.82;;;7.10;78.10;;;;;;5056474;28;20029;-80
2022/01/25 08:26:33;;;;;;;10.95;8.70;;;7.20;76.80;;;;;;5051650;28;20102;-81
2022/01/25 08:28:59;;;;;;;11.80;9.50;;;7.30;77.30;;;;;;5052906;28;20033;-82
2022/01/25 08:31:25;;;;;;;11.35;8.20;;;7.40;75.50;;;;;;5052557;28;20031;-81
2022/01/25 08:33:51;;;;;;;11.55;7.63;;;7.50;75.40;;;;;;5033728;28;20037;-82
2022/01/25 08:36:17;;;;;;;10.15;7.43;;;7.60;75.30;;;;;;5052226;28;20180;-81
2022/01/25 08:38:43;;;;;;;8.68;7.63;;;7.70;75.00;;;;;;5035102;28;20041;-81
2022/01/25 08:41:08;;;;;;;11.48;7.80;;;7.80;75.00;;;;;;5052871;28;20037;-81
2022/01/25 08:43:34;;;;;;;9.93;8.23;;;7.90;74.40;;;;;;5052968;28;20040;-81
2022/01/25 08:46:01;;;;;;;10.70;9.27;;;8.00;74.00;;;;;;5052921;28;20073;-82
2022/01/25 08:48:27;;;;;;;13.85;10.63;;;8.10;73.40;;;;;;5053010;28;20037;-81
2022/01/25 08:50:52;;;;;;;12.98;9.10;;;8.10;72.60;;;;;;5053444;28;20025;-82
2022/01/25 08:53:19;;;;;;;10.23;8.75;;;8.20;73.60;;;;;;5053089;28;20116;-81
2022/01/25 08:55:45;;;;;;;16.92;13.75;;;8.30;73.40;;;;;;5052767;28;20045;-82
2022/01/25 08:58:10;;;;;;;23.27;15.30;;;8.40;72.00;;;;;;5053250;28;20104;-81
2022/01/25 09:00:37;;;;;;;15.73;11.32;;;8.10;72.70;;;;;;5062712;28;20544;-81
2022/01/25 09:03:03;;;;;;;13.20;9.65;;;8.00;73.60;;;;;;5059908;28;20033;-82
2022/01/25 09:05:29;;;;;;;11.00;9.27;;;8.20;74.00;;;;;;5057530;28;20427;-81
2022/01/25 09:07:57;;;;;;;11.93;10.40;;;8.40;73.90;;;;;;5056753;28;20109;-81
2022/01/25 09:10:24;;;;;;;13.30;9.30;;;8.50;72.50;;;;;;5056564;28;20544;-82
2022/01/25 09:12:50;;;;;;;11.18;9.43;;;8.60;72.80;;;;;;5056816;28;20159;-82
2022/01/25 09:15:16;;;;;;;13.18;10.52;;;8.70;71.90;;;;;;5056480;28;20485;-82
2022/01/25 09:17:42;;;;;;;11.25;8.75;;;8.70;71.10;;;;;;5038310;28;20033;-81
2022/01/25 09:20:08;;;;;;;12.40;9.93;;;8.80;71.90;;;;;;5038565;28;20086;-82
2022/01/25 09:22:35;;;;;;;22.25;16.50;;;9.00;71.60;;;;;;5055991;28;20025;-81
2022/01/25 09:25:02;;;;;;;20.27;14.18;;;8.80;70.60;;;;;;5056799;28;20525;-81
2022/01/25 09:27:27;;;;;;;16.15;13.02;;;8.50;72.00;;;;;;5056685;28;20037;-82
2022/01/25 09:29:53;;;;;;;22.02;16.50;;;8.60;72.30;;;;;;5056222;28;20040;-82
2022/01/25 09:32:19;;;;;;;16.40;12.55;;;8.70;71.70;;;;;;5055721;28;20468;-82
2022/01/25 09:34:45;;;;;;;14.50;11.93;;;8.80;71.70;;;;;;5055681;28;20049;-81
2022/01/25 09:37:11;;;;;;;17.90;12.65;;;8.90;71.40;;;;;;5055989;28;20029;-82
2022/01/25 09:39:37;;;;;;;13.15;10.27;;;8.90;71.80;;;;;;5056380;28;20041;-82
2022/01/25 09:42:08;;;;;;;12.88;10.60;;;9.10;72.00;;;;;;5055813;28;20036;-81
2022/01/25 09:44:38;;;;;;;17.50;13.40;;;9.30;71.50;;;;;;5055562;28;20041;-81
2022/01/25 09:47:04;;;;;;;26.73;18.55;;;9.40;70.90;;;;;;5055843;28;20043;-81
2022/01/25 09:49:32;;;;;;;14.48;12.88;;;9.20;71.00;;;;;;5055343;28;20044;-82
2022/01/25 09:52:01;;;;;;;18.23;15.18;;;9.10;72.40;;;;;;5055898;28;20095;-82
2022/01/25 09:54:27;;;;;;;18.17;14.23;;;9.30;71.80;;;;;;5056489;28;20037;-81
2022/01/25 09:56:53;;;;;;;15.35;12.48;;;9.40;71.30;;;;;;5055384;28;20112;-81
2022/01/25 09:59:18;;;;;;;13.77;11.18;;;9.50;71.20;;;;;;5056083;28;20167;-82
2022/01/25 10:01:45;;;;;;;18.58;13.55;;;9.70;71.00;;;;;;5037494;28;20036;-81
2022/01/25 10:04:31;;;;;;;17.25;12.75;;;9.80;69.90;;;;;;5056317;28;20033;-81
2022/01/25 10:06:57;;;;;;;12.30;10.45;;;9.90;70.30;;;;;;5055373;28;20429;-81
2022/01/25 10:09:25;;;;;;;13.32;11.30;;;10.20;70.30;;;;;;5037800;28;20132;-82
2022/01/25 10:11:51;;;;;;;15.35;11.65;;;10.30;69.30;;;;;;5055444;28;20048;-81
2022/01/25 10:14:17;;;;;;;12.15;10.38;;;10.40;69.10;;;;;;5055602;28;20029;-81
2022/01/25 10:16:45;;;;;;;15.25;10.88;;;10.60;69.40;;;;;;5055625;28;20469;-82
2022/01/25 10:19:12;;;;;;;18.95;15.60;;;10.80;68.60;;;;;;5052974;28;20045;-82
2022/01/25 10:21:42;;;;;;;14.27;12.77;;;10.70;67.10;;;;;;5037414;28;20045;-81
2022/01/25 10:24:13;;;;;;;13.82;11.95;;;10.70;68.20;;;;;;5055361;28;20036;-81
2022/01/25 10:26:40;;;;;;;;;;;10.80;68.40;;;;;;5056002;28;20045;-81
2022/01/25 10:29:07;;;;;;;19.60;13.20;;;10.60;66.90;;;;;;5054725;28;20458;-82
2022/01/25 10:31:37;;;;;;;15.30;12.00;;;10.50;69.10;;;;;;5054958;28;20033;-82
2022/01/25 10:34:04;;;;;;;13.63;11.35;;;10.70;68.90;;;;;;5054693;28;20041;-82
2022/01/25 10:36:38;;;;;;;16.85;13.07;;;11.00;68.10;;;;;;5054528;28;20045;-82
2022/01/25 10:39:04;;;;;;;18.13;12.73;;;11.30;67.10;;;;;;5054833;28;20041;-82
2022/01/25 10:41:31;;;;;;;19.10;15.27;;;11.50;65.90;;;;;;5037400;28;20061;-82
2022/01/25 10:43:58;;;;;;;27.50;17.95;;;11.20;66.10;;;;;;5054662;28;20041;-81
2022/01/25 10:46:33;;;;;;;21.75;15.32;;;11.30;65.20;;;;;;5054882;28;20076;-82
2022/01/25 10:49:03;;;;;;;15.02;12.43;;;11.20;67.10;;;;;;5054266;28;20049;-82
2022/01/25 10:51:33;;;;;;;15.23;12.10;;;11.50;67.20;;;;;;5055614;28;20430;-82
2022/01/25 10:54:04;;;;;;;23.37;18.27;;;11.80;66.20;;;;;;5053895;28;20037;-81
2022/01/25 10:56:39;;;;;;;20.02;16.77;;;12.00;63.90;;;;;;5043361;28;20041;-82
2022/01/25 10:59:06;;;;;;;20.20;16.17;;;12.10;63.40;;;;;;5050998;28;20087;-81
2022/01/25 11:01:38;;;;;;;20.50;16.75;;;12.00;63.90;;;;;;5054748;28;20045;-82
2022/01/25 11:04:13;;;;;;;30.90;23.27;;;12.00;64.20;;;;;;5055171;28;20568;-81
2022/01/25 11:06:40;;;;;;;20.85;16.20;;;11.60;64.60;;;;;;5054427;28;20031;-82
2022/01/25 11:09:09;;;;;;;20.08;15.82;;;11.60;66.00;;;;;;5036803;28;20087;-81
2022/01/25 11:11:45;;;;;;;19.35;15.38;;;11.90;65.50;;;;;;5053433;28;20028;-81
2022/01/25 11:16:56;;;;;;;20.40;16.50;;;12.00;63.30;;;;;;5048168;28;20641;-82
2022/01/25 11:19:22;;;;;;;19.52;14.85;;;12.30;65.50;;;;;;5051546;28;20123;-82
2022/01/25 11:21:50;;;;;;;21.40;18.58;;;12.50;65.70;;;;;;5046764;28;20049;-81
2022/01/25 11:24:18;;;;;;;25.65;20.60;;;12.40;62.70;;;;;;5041660;28;20185;-80
2022/01/25 11:26:46;;;;;;;27.85;22.65;;;12.30;63.40;;;;;;5052581;28;20047;-81
2022/01/25 11:29:12;;;;;;;25.38;20.73;;;11.80;64.30;;;;;;5051553;28;20091;-80
2022/01/25 11:31:41;;;;;;;28.65;25.55;;;11.40;65.90;;;;;;5042350;28;20461;-81
2022/01/25 11:34:11;;;;;;;24.50;21.13;;;11.30;66.80;;;;;;5046773;28;20042;-80
2022/01/25 11:36:56;;;;;;;19.75;16.20;;;11.30;67.30;;;;;;5045330;28;20052;-81
2022/01/25 11:39:27;;;;;;;22.13;17.33;;;11.70;68.20;;;;;;5043713;28;20051;-81
2022/01/25 11:42:22;;;;;;;22.75;18.27;;;12.10;66.10;;;;;;5043208;28;20033;-81
2022/01/25 11:44:51;;;;;;;25.45;19.52;;;12.20;66.10;;;;;;5029231;28;20135;-81
2022/01/25 11:47:20;;;;;;;25.98;20.88;;;12.30;65.50;;;;;;5044059;28;20037;-81
2022/01/25 11:49:54;;;;;;;27.30;21.73;;;12.40;66.20;;;;;;5048788;28;20041;-81
2022/01/25 11:52:21;;;;;;;31.98;27.20;;;12.70;65.60;;;;;;5049223;28;20041;-81
2022/01/25 11:54:50;;;;;;;40.65;34.00;;;12.60;64.30;;;;;;5041055;28;20040;-81
2022/01/25 11:57:21;;;;;;;46.83;38.25;;;12.70;63.80;;;;;;5042555;28;20045;-81
2022/01/25 11:59:53;;;;;;;40.53;32.00;;;12.30;64.10;;;;;;5026283;28;20090;-81
2022/01/25 12:02:44;;;;;;;32.45;24.83;;;12.20;64.70;;;;;;5026389;28;20033;-81
2022/01/25 12:05:13;;;;;;;48.30;37.03;;;12.70;65.40;;;;;;5044639;28;20052;-81
2022/01/25 12:07:42;;;;;;;36.67;29.25;;;13.20;62.10;;;;;;5044240;28;20044;-81
2022/01/25 12:10:29;;;;;;;41.60;30.83;;;13.60;63.40;;;;;;5051191;28;20028;-81
2022/01/25 12:13:27;;;;;;;37.22;30.90;;;14.20;59.40;;;;;;5043360;28;20033;-82
2022/01/25 12:16:22;;;;;;;50.25;39.40;;;14.50;59.60;;;;;;5041661;28;20393;-80
2022/01/25 12:18:52;;;;;;;37.40;30.30;;;14.80;57.70;;;;;;5044079;28;20056;-81
2022/01/25 12:21:47;;;;;;;33.83;27.92;;;15.20;57.80;;;;;;5051559;28;20037;-81
2022/01/25 12:24:19;;;;;;;54.95;43.13;;;15.70;57.00;;;;;;5047769;28;20083;-80
2022/01/25 12:27:17;;;;;;;51.90;41.67;;;15.30;55.40;;;;;;5051567;28;20033;-80
2022/01/25 12:29:45;;;;;;;47.30;36.80;;;15.00;56.60;;;;;;5053915;28;20037;-80
2022/01/25 12:32:19;;;;;;;47.17;39.45;;;14.70;57.80;;;;;;5047785;28;20108;-81
2022/01/25 12:35:07;;;;;;;44.33;36.80;;;14.40;57.70;;;;;;5050547;28;20033;-81
2022/01/25 12:37:54;;;;;;;44.22;35.40;;;14.20;57.60;;;;;;5045215;28;20105;-80
2022/01/25 12:40:26;;;;;;;39.40;31.98;;;14.00;58.20;;;;;;5034706;28;20037;-80
2022/01/25 12:42:52;;;;;;;37.53;30.65;;;14.00;59.40;;;;;;5051689;28;20723;-81
2022/01/25 12:45:19;;;;;;;51.28;40.20;;;14.20;58.90;;;;;;5052484;28;20487;-81
2022/01/25 12:47:52;;;;;;;61.90;48.08;;;13.90;58.60;;;;;;5051536;28;20033;-81
2022/01/25 12:50:18;;;;;;;60.47;44.97;;;13.80;58.60;;;;;;5051968;28;20072;-80
2022/01/25 12:52:45;;;;;;;65.03;51.45;;;13.80;59.80;;;;;;5051507;28;20517;-80
2022/01/25 12:55:12;;;;;;;53.65;42.10;;;14.00;58.90;;;;;;5051717;28;20540;-81
2022/01/25 12:57:44;;;;;;;48.33;37.50;;;14.00;59.40;;;;;;5051890;28;20033;-80
2022/01/25 13:00:11;;;;;;;54.22;38.78;;;14.30;59.30;;;;;;5048363;28;20037;-82
2022/01/25 13:02:36;;;;;;;52.65;42.08;;;14.70;59.20;;;;;;5051578;28;20045;-82
2022/01/25 13:05:17;;;;;;;62.83;48.03;;;14.60;57.70;;;;;;5048904;28;20052;-83
2022/01/25 13:07:43;;;;;;;47.13;37.60;;;14.30;57.50;;;;;;5032315;28;20033;-83
2022/01/25 13:10:11;;;;;;;51.05;37.67;;;13.80;59.20;;;;;;5044870;28;20047;-83
2022/01/25 13:12:56;;;;;;;47.90;37.42;;;13.90;60.50;;;;;;5047822;28;20102;-85
2022/01/25 13:15:51;;;;;;;53.38;43.13;;;14.20;61.30;;;;;;5050140;28;20037;-84
2022/01/25 13:18:17;;;;;;;48.75;38.47;;;14.40;59.30;;;;;;5038570;28;20657;-82
2022/01/25 13:20:46;;;;;;;49.00;38.15;;;14.60;57.80;;;;;;5049205;28;20049;-82
2022/01/25 13:23:12;;;;;;;56.30;44.53;;;14.30;58.40;;;;;;5048723;28;20500;-82
2022/01/25 13:30:55;;;;;;;47.88;37.30;;;13.20;60.30;;;;;;5048592;28;20040;-83
2022/01/25 13:33:21;;;;;;;54.88;41.03;;;13.10;60.80;;;;;;5050354;28;20032;-83
2022/01/25 13:35:53;;;;;;;61.45;46.55;;;12.80;62.20;;;;;;5051349;28;20041;-82
2022/01/25 13:38:38;;;;;;;56.47;44.67;;;12.80;63.00;;;;;;5050496;28;20033;-82
2022/01/25 13:41:28;;;;;;;58.30;40.10;;;12.50;64.00;;;;;;5050900;28;20107;-81
2022/01/25 13:46:23;;;;;;;73.28;53.30;;;12.60;65.40;;;;;;5053256;28;20041;-83
2022/01/25 13:48:50;;;;;;;78.28;57.50;;;12.40;65.80;;;;;;5046509;28;20049;-83
2022/01/25 13:51:20;;;;;;;62.85;47.45;;;12.20;66.50;;;;;;5055549;28;20037;-83
2022/01/25 13:53:51;;;;;;;;;;;12.00;66.60;;;;;;5055462;28;20052;-83
2022/01/25 13:56:18;;;;;;;63.67;45.25;;;12.00;66.30;;;;;;5054862;28;19913;-81
2022/01/25 13:58:49;;;;;;;75.75;52.95;;;11.90;67.10;;;;;;5036082;28;20084;-83
2022/01/25 14:01:18;;;;;;;66.38;49.13;;;11.70;67.70;;;;;;5054908;28;20033;-82
2022/01/25 14:03:52;;;;;;;74.90;54.10;;;11.60;68.10;;;;;;5054969;28;20044;-83
2022/01/25 14:06:42;;;;;;;81.72;59.38;;;11.40;68.80;;;;;;5054171;28;20053;-83
2022/01/25 14:09:12;;;;;;;70.25;49.13;;;11.00;69.80;;;;;;5043253;28;20064;-83
2022/01/25 14:22:52;;;;;;;59.80;41.20;;;10.60;71.10;;;;;;5048607;28;20060;-82
2022/01/25 14:25:30;;;;;;;57.30;40.50;;;10.60;71.40;;;;;;5053335;28;20045;-84
2022/01/25 14:27:58;;;;;;;58.30;41.80;;;10.60;71.40;;;;;;5050877;28;20037;-85
2022/01/25 14:30:25;;;;;;;57.33;39.33;;;10.50;71.70;;;;;;5053725;28;20084;-83
2022/01/25 14:33:10;;;;;;;61.30;41.78;;;10.50;71.70;;;;;;5051669;28;20048;-83
2022/01/25 14:35:48;;;;;;;81.43;53.22;;;10.50;71.50;;;;;;5046111;28;20052;-83
2022/01/25 14:38:38;;;;;;;57.13;40.65;;;10.40;71.30;;;;;;5051048;28;20044;-83
2022/01/25 14:41:18;;;;;;;53.95;37.75;;;10.50;71.00;;;;;;5050296;28;20053;-82
2022/01/25 14:43:49;;;;;;;;;;;10.40;71.30;;;;;;5026281;28;20083;-83
2022/01/25 14:46:17;;;;;;;;;;;10.50;71.20;;;;;;5033516;28;19916;-83
2022/01/25 14:48:54;;;;;;;62.05;40.03;;;10.40;71.90;;;;;;5050907;28;19929;-83